Астрахань

Карта отелей и гостиниц, располагающихся рядом с аэропортом Астрахань :

Астрахань Астраханская область 46° 16' 59.6388" N, 48° 0' 22.3812" E
Код аэродрома ИКАО
URWA
Код аэродрома RU
УРВА
Координаты
N46.28323° E048.00622°
Превышение над уровнем моря
-20
Основная полоса
09/27
Курс магнитный
088,5/268,5
Длина основной ВПП
3200
Ширина основной ВПП
45
Покрытие основной ВПП
Твёрдое (железобетон)
Освещение ВПП
Постоянное
Тип: 
Аэродром
Класс аэродрома: 
Международный
Принадлежность: 
ГА
Статус: 
Действующий
Сайт: 
аэропортастрахань.рф
E-mail аэродрома: 
mail@airport.astrakhan.ru
Страна: 
Россия
Регион: 
Астраханская область
Дополнительная информация: 
Оператор: ОАО «Аэропорт Астрахань». Аэропорт федерального значения, расположенный на южной окраине г. Астрахани в 8 км южнее центра города. До начала 2000-х годов носил наименование «Нариманово». Максимальный взлётный вес воздушного судна: 191 тонна. Классификационное число ВПП (PCN) 63/F/C/Х/T. Оборудование аэродрома позволяет выполнять посадку ВС по метеоминимуму I-й категории ИКАО (800х60м). ДПРМ: 650-GV, БПРМ: 315-G с МК=089°.
Погода: 

Авиационная погода в Астрахани

Регион: 
Погода METAR: 
URWA 271500Z 24006MPS 8000 OVC009 05/04 Q1012 R27/290050 BECMG OVC005 RMK QFE761/1014
Время наблюдения
2021-02-27T15:00:00Z
Температура C
5.0
Точка росы
4.0
Направление ветра
240
Скорость ветра (узлы)
12
Метео видимость
4.97
Явления погоды
Условия полета
IFR
Аэропорт подробнее: 

Найти трансфер

С помощью этой формы Вы можете найти трансфер из аэропорта Астрахань в город, аэропорт или вокзал:

Карта места

Javascript is required to view this map.

Погода в аэропортах:

Авиационная погода в Челябинске

Регион: 
Погода METAR: 
USCC 271500Z 12006MPS 1700 SN BKN007 M18/M21 Q1012 R09/490345 NOSIG RMK QFE739
Время наблюдения
2021-02-27T15:00:00Z
Температура C
-18.0
Точка росы
-21.0
Направление ветра
120
Скорость ветра (узлы)
12
Метео видимость
1.06
Явления погоды
SN
Условия полета
IFR
Аэропорт подробнее: 

Авиационная погода в Архангельске

Регион: 
Погода METAR: 
ULAA 271500Z 00000MPS 5000 -SN BR OVC004 M05/M06 Q1010 R08/590534 NOSIG RMK QBB120 QFE756/1008
Время наблюдения
2021-02-27T15:00:00Z
Температура C
-5.0
Точка росы
-6.0
Направление ветра
0
Скорость ветра (узлы)
0
Метео видимость
3.11
Явления погоды
-SN BR
Условия полета
LIFR
Аэропорт подробнее: 

Авиационная погода в Костанае

Регион: 
Погода METAR: 
UAUU 271500Z 13008MPS 2300 SN BLSN OVC035 M14/M16 Q1014 R15/420251 NOSIG RMK QFE744/0993
Время наблюдения
2021-02-27T15:00:00Z
Температура C
-14.0
Точка росы
-16.0
Направление ветра
130
Скорость ветра (узлы)
16
Метео видимость
1.43
Явления погоды
SN BLSN
Условия полета
IFR
Аэропорт подробнее: 

Авиационная погода в Вардё

Регион: 
Погода METAR: 
ENSS 261750Z 35027KT 9999 6000NW -SHRA SCT014 BKN020 01/M02 Q1001 RMK WIND 500FT 35036KT
Время наблюдения
2021-02-26T17:50:00Z
Температура C
1.0
Точка росы
-2.0
Направление ветра
350
Скорость ветра (узлы)
27
Метео видимость
6.21
Явления погоды
-SHRA
Условия полета
MVFR